createdAt,value
2023-04-01T00:00:26.902Z,11.07
2023-04-01T00:01:48.852Z,11.07
2023-04-01T00:03:10.161Z,11.08
2023-04-01T00:04:32.345Z,11.08
2023-04-01T00:05:53.618Z,11.10
2023-04-01T00:07:18.049Z,11.09
2023-04-01T00:08:39.456Z,11.14
2023-04-01T00:10:02.078Z,11.12
2023-04-01T00:11:26.192Z,11.10
2023-04-01T00:12:55.608Z,11.08
2023-04-01T00:14:24.376Z,11.10
2023-04-01T00:15:49.990Z,11.18
2023-04-01T00:17:14.150Z,11.22
2023-04-01T00:18:36.823Z,11.17
2023-04-01T00:19:58.485Z,11.17
2023-04-01T00:21:21.684Z,11.21
2023-04-01T00:22:43.379Z,11.24
2023-04-01T00:24:06.091Z,11.21
2023-04-01T00:25:27.492Z,11.21
2023-04-01T00:26:52.075Z,11.21
2023-04-01T00:28:14.982Z,11.19
2023-04-01T00:29:39.509Z,11.23
2023-04-01T00:31:06.277Z,11.20
2023-04-01T00:32:28.834Z,11.26
2023-04-01T00:33:52.885Z,11.19
2023-04-01T00:35:14.400Z,11.25
2023-04-01T00:36:36.945Z,11.19
2023-04-01T00:37:58.778Z,11.24
2023-04-01T00:39:22.431Z,11.19
2023-04-01T00:40:46.807Z,11.23
2023-04-01T00:42:15.090Z,11.28
2023-04-01T00:43:41.884Z,11.28
2023-04-01T00:45:31.406Z,11.18
2023-04-01T00:46:57.430Z,11.22
2023-04-01T00:48:23.891Z,11.23
2023-04-01T00:49:58.297Z,11.26
2023-04-01T00:51:24.833Z,11.18
2023-04-01T00:52:47.561Z,11.23
2023-04-01T00:54:12.203Z,11.28
2023-04-01T00:55:37.674Z,11.17
2023-04-01T00:57:04.440Z,11.24
2023-04-01T00:58:33.521Z,11.19
2023-04-01T00:59:59.402Z,11.25
2023-04-01T01:01:24.277Z,11.20
2023-04-01T01:02:47.550Z,11.17
2023-04-01T01:04:26.116Z,11.21
2023-04-01T01:06:05.043Z,11.21
2023-04-01T01:07:35.917Z,11.24
2023-04-01T01:09:28.782Z,11.24
2023-04-01T01:10:51.506Z,11.25
2023-04-01T01:12:16.843Z,11.27
2023-04-01T01:13:49.792Z,11.28
2023-04-01T01:15:22.644Z,11.29
2023-04-01T01:16:48.301Z,11.30
2023-04-01T01:18:20.648Z,11.31
2023-04-01T01:19:52.661Z,11.28
2023-04-01T01:21:53.221Z,11.28
2023-04-01T01:23:51.254Z,11.27
2023-04-01T01:25:28.775Z,11.27
2023-04-01T01:26:58.632Z,11.29
2023-04-01T01:28:34.458Z,11.28
2023-04-01T01:30:27.700Z,11.27
2023-04-01T01:31:58.051Z,11.30
2023-04-01T01:33:48.126Z,11.30
2023-04-01T01:35:22.497Z,11.29
2023-04-01T01:36:46.805Z,11.33
2023-04-01T01:38:11.435Z,11.33
2023-04-01T01:39:37.209Z,11.28
2023-04-01T01:41:03.741Z,11.35
2023-04-01T01:42:27.617Z,11.35
2023-04-01T01:43:54.078Z,11.37
2023-04-01T01:45:19.803Z,11.38
2023-04-01T01:46:45.020Z,11.38
2023-04-01T01:48:09.400Z,11.39
2023-04-01T01:49:34.649Z,11.40
2023-04-01T01:50:58.251Z,11.42
2023-04-01T01:52:19.522Z,11.41
2023-04-01T01:53:42.087Z,11.42
2023-04-01T01:55:04.985Z,11.44
2023-04-01T01:56:41.639Z,11.39
2023-04-01T01:58:11.469Z,11.43
2023-04-01T01:59:37.442Z,11.44
2023-04-01T02:01:02.388Z,11.45
2023-04-01T02:02:28.206Z,11.47
2023-04-01T02:03:51.136Z,11.41
2023-04-01T02:05:19.679Z,11.44
2023-04-01T02:06:50.793Z,11.44
2023-04-01T02:08:15.900Z,11.41
2023-04-01T02:09:37.805Z,11.42
2023-04-01T02:11:03.444Z,11.42
2023-04-01T02:12:32.411Z,11.42
2023-04-01T02:13:58.138Z,11.40
2023-04-01T02:15:22.950Z,11.43
2023-04-01T02:16:52.225Z,11.43
2023-04-01T02:18:15.758Z,11.43
2023-04-01T02:19:41.821Z,11.45
2023-04-01T02:21:07.227Z,11.46
2023-04-01T02:22:33.018Z,11.44
2023-04-01T02:23:57.031Z,11.48
2023-04-01T02:25:21.833Z,11.50
2023-04-01T02:26:45.314Z,11.50
2023-04-01T02:28:08.883Z,11.51
2023-04-01T02:29:32.241Z,11.50
2023-04-01T02:30:54.366Z,11.51
2023-04-01T02:32:18.963Z,11.54
2023-04-01T02:33:43.600Z,11.54
2023-04-01T02:35:07.434Z,11.55
2023-04-01T02:36:29.571Z,11.54
2023-04-01T02:37:54.930Z,11.56
2023-04-01T02:39:17.608Z,11.57
2023-04-01T02:40:50.684Z,11.55
2023-04-01T02:42:12.882Z,11.56
2023-04-01T02:43:34.072Z,11.56
2023-04-01T02:44:57.320Z,11.56
2023-04-01T02:46:19.556Z,11.56
2023-04-01T02:47:40.903Z,11.57
2023-04-01T02:49:03.326Z,11.53
2023-04-01T02:50:26.139Z,11.57
2023-04-01T02:51:48.608Z,11.55
2023-04-01T02:53:11.621Z,11.55
2023-04-01T02:54:33.557Z,11.55
2023-04-01T02:55:54.845Z,11.55
2023-04-01T02:57:17.228Z,11.55
2023-04-01T02:58:40.950Z,11.56
2023-04-01T03:00:03.106Z,11.55
2023-04-01T03:01:24.622Z,11.57
2023-04-01T03:02:46.783Z,11.57
2023-04-01T03:04:09.181Z,11.58
2023-04-01T03:05:30.485Z,11.60
2023-04-01T03:06:53.105Z,11.60
2023-04-01T03:08:16.800Z,11.61
2023-04-01T03:09:37.943Z,11.62
2023-04-01T03:11:00.672Z,11.64
2023-04-01T03:12:22.902Z,11.64
2023-04-01T03:13:45.784Z,11.64
2023-04-01T03:15:10.786Z,11.65
2023-04-01T03:16:35.067Z,11.64
2023-04-01T03:17:56.325Z,11.65
2023-04-01T03:19:18.731Z,11.67
2023-04-01T03:20:40.131Z,11.66
2023-04-01T03:22:02.504Z,11.67
2023-04-01T03:23:26.521Z,11.67
2023-04-01T03:24:49.365Z,11.67
2023-04-01T03:26:11.035Z,11.69
2023-04-01T03:27:33.412Z,11.67
2023-04-01T03:28:56.209Z,11.67
2023-04-01T03:30:18.509Z,11.64
2023-04-01T03:31:45.976Z,11.62
2023-04-01T03:33:08.806Z,11.65
2023-04-01T03:34:29.943Z,11.65
2023-04-01T03:35:53.381Z,11.64
2023-04-01T03:37:16.025Z,11.62
2023-04-01T03:38:39.961Z,11.60
2023-04-01T03:40:01.920Z,11.60
2023-04-01T03:41:23.125Z,11.58
2023-04-01T03:42:45.750Z,11.55
2023-04-01T03:44:07.231Z,11.54
2023-04-01T03:45:29.685Z,11.54
2023-04-01T03:46:50.685Z,11.50
2023-04-01T03:48:13.614Z,11.43
2023-04-01T03:49:34.922Z,11.47
2023-04-01T03:50:56.875Z,11.44
2023-04-01T03:52:18.834Z,11.38
2023-04-01T03:53:42.652Z,11.38
2023-04-01T03:55:07.888Z,11.34
2023-04-01T03:56:29.667Z,11.31
2023-04-01T03:57:52.094Z,11.30
2023-04-01T03:59:16.589Z,11.26
2023-04-01T04:00:38.800Z,11.22
2023-04-01T04:02:01.587Z,11.21
2023-04-01T04:03:24.440Z,11.18
2023-04-01T04:04:47.610Z,11.15
2023-04-01T04:06:13.018Z,11.06
2023-04-01T04:07:36.785Z,11.11
2023-04-01T04:09:01.954Z,11.05
2023-04-01T04:10:27.959Z,11.06
2023-04-01T04:11:49.277Z,11.03
2023-04-01T04:13:11.778Z,10.99
2023-04-01T04:14:40.887Z,10.94
2023-04-01T04:16:02.113Z,10.96
2023-04-01T04:17:24.940Z,10.96
2023-04-01T04:18:47.592Z,10.95
2023-04-01T04:20:09.668Z,10.93
2023-04-01T04:21:32.238Z,10.92
2023-04-01T04:22:55.330Z,10.92
2023-04-01T04:24:18.793Z,10.89
2023-04-01T04:26:02.306Z,10.87
2023-04-01T04:27:25.025Z,10.86
2023-04-01T04:28:58.552Z,10.86
2023-04-01T04:30:20.560Z,10.84
2023-04-01T04:31:44.385Z,10.84
2023-04-01T04:33:06.564Z,10.82
2023-04-01T04:34:29.330Z,10.79
2023-04-01T04:35:51.039Z,10.78
2023-04-01T04:37:13.426Z,10.76
2023-04-01T04:38:35.757Z,10.76
2023-04-01T04:40:01.807Z,10.72
2023-04-01T04:41:24.452Z,10.74
2023-04-01T04:42:47.130Z,10.72
2023-04-01T04:44:11.913Z,10.71
2023-04-01T04:45:33.519Z,10.68
2023-04-01T04:46:58.384Z,10.67
2023-04-01T04:48:21.436Z,10.64
2023-04-01T04:49:44.812Z,10.64
2023-04-01T04:51:06.077Z,10.63
2023-04-01T04:52:29.701Z,10.62
2023-04-01T04:53:53.245Z,10.62
2023-04-01T04:55:24.193Z,10.52
2023-04-01T04:57:01.980Z,10.59
2023-04-01T04:58:28.285Z,10.60
2023-04-01T04:59:50.931Z,10.58
2023-04-01T05:01:21.595Z,10.56
2023-04-01T05:02:42.745Z,10.59
2023-04-01T05:04:05.011Z,10.59
2023-04-01T05:05:26.205Z,10.61
2023-04-01T05:06:48.776Z,10.57
2023-04-01T05:08:17.534Z,10.59
2023-04-01T05:09:40.101Z,10.59
2023-04-01T05:11:04.897Z,10.59
2023-04-01T05:12:28.664Z,10.60
2023-04-01T05:13:54.143Z,10.60
2023-04-01T05:15:16.481Z,10.59
2023-04-01T05:16:38.803Z,10.62
2023-04-01T05:18:00.762Z,10.62
2023-04-01T05:19:22.731Z,10.63
2023-04-01T05:20:48.432Z,10.60
2023-04-01T05:22:10.860Z,10.60
2023-04-01T05:23:33.392Z,10.61
2023-04-01T05:24:56.326Z,10.60
2023-04-01T05:26:20.367Z,10.61
2023-04-01T05:27:42.709Z,10.60
2023-04-01T05:29:05.425Z,10.61
2023-04-01T05:30:28.384Z,10.61
2023-04-01T05:31:59.466Z,10.60
2023-04-01T05:33:21.184Z,10.61
2023-04-01T05:34:42.953Z,10.57
2023-04-01T05:36:12.959Z,10.63
2023-04-01T05:37:35.598Z,10.64
2023-04-01T05:38:59.284Z,10.66
2023-04-01T05:40:23.239Z,10.67
2023-04-01T05:41:47.190Z,10.69
2023-04-01T05:43:09.695Z,10.74
2023-04-01T05:44:31.188Z,10.77
2023-04-01T05:45:59.522Z,10.79
2023-04-01T05:47:41.980Z,10.77
2023-04-01T05:49:04.406Z,10.83
2023-04-01T05:50:25.728Z,10.87
2023-04-01T05:51:52.368Z,10.89
2023-04-01T05:53:13.856Z,10.92
2023-04-01T05:54:38.810Z,10.92
2023-04-01T05:56:05.273Z,10.96
2023-04-01T05:57:34.722Z,10.93
2023-04-01T05:58:57.223Z,10.97
2023-04-01T06:00:21.136Z,11.02
2023-04-01T06:01:43.757Z,11.05
2023-04-01T06:03:05.471Z,11.06
2023-04-01T06:04:31.894Z,10.99
2023-04-01T06:05:55.014Z,11.09
2023-04-01T06:07:19.018Z,11.09
2023-04-01T06:08:40.129Z,11.08
2023-04-01T06:10:03.553Z,11.08
2023-04-01T06:11:36.457Z,11.09
2023-04-01T06:13:07.318Z,11.00
2023-04-01T06:14:39.174Z,11.06
2023-04-01T06:16:10.042Z,11.09
2023-04-01T06:17:45.568Z,11.10
2023-04-01T06:19:22.788Z,11.11
2023-04-01T06:20:51.598Z,11.05
2023-04-01T06:22:49.979Z,11.11
2023-04-01T06:24:30.908Z,11.11
2023-04-01T06:26:08.000Z,11.12
2023-04-01T06:27:48.892Z,11.11
2023-04-01T06:29:29.465Z,11.18
2023-04-01T06:31:00.289Z,11.20
2023-04-01T06:33:05.765Z,11.19
2023-04-01T06:35:01.787Z,11.11
2023-04-01T06:36:59.853Z,11.22
2023-04-01T06:38:46.423Z,11.24
2023-04-01T06:40:40.297Z,11.26
2023-04-01T06:42:33.002Z,11.28
2023-04-01T06:44:17.278Z,11.32
2023-04-01T06:46:08.799Z,11.29
2023-04-01T06:48:04.681Z,11.35
2023-04-01T06:50:00.640Z,11.39
2023-04-01T06:51:35.641Z,11.48
2023-04-01T06:53:25.118Z,11.47
2023-04-01T06:55:36.963Z,11.50
2023-04-01T06:57:25.685Z,11.50
2023-04-01T06:59:12.778Z,11.48
2023-04-01T07:00:45.943Z,11.55
2023-04-01T07:02:25.660Z,11.61
2023-04-01T07:03:55.951Z,11.67
2023-04-01T07:05:19.168Z,11.66
2023-04-01T07:06:56.629Z,11.65
2023-04-01T07:08:26.544Z,11.76
2023-04-01T07:09:53.967Z,11.76
2023-04-01T07:11:31.543Z,11.82
2023-04-01T07:13:30.355Z,11.87
2023-04-01T07:15:08.483Z,11.86
2023-04-01T07:16:37.835Z,11.87
2023-04-01T07:18:10.084Z,11.95
2023-04-01T07:19:43.525Z,12.02
2023-04-01T07:21:36.072Z,12.02
2023-04-01T07:23:13.937Z,12.08
2023-04-01T07:25:15.729Z,12.14
2023-04-01T07:26:41.686Z,12.20
2023-04-01T07:28:07.480Z,12.24
2023-04-01T07:29:35.982Z,12.34
2023-04-01T07:31:18.620Z,12.32
2023-04-01T07:33:07.448Z,12.37
2023-04-01T07:34:46.301Z,12.32
2023-04-01T07:36:27.951Z,12.37
2023-04-01T07:38:09.289Z,12.39
2023-04-01T07:39:49.355Z,12.33
2023-04-01T07:41:28.203Z,12.39
2023-04-01T07:43:14.382Z,12.32
2023-04-01T07:45:29.039Z,12.33
2023-04-01T07:47:31.684Z,12.35
2023-04-01T07:49:01.025Z,12.34
2023-04-01T07:51:07.637Z,12.39
2023-04-01T07:52:49.790Z,12.44
2023-04-01T07:54:33.951Z,12.48
2023-04-01T07:57:56.714Z,12.50
2023-04-01T07:59:25.435Z,12.62
2023-04-01T08:01:04.496Z,12.66
2023-04-01T08:02:55.089Z,12.65
2023-04-01T08:04:44.677Z,12.80
2023-04-01T08:06:17.165Z,12.89
2023-04-01T08:08:14.146Z,12.95
2023-04-01T08:10:02.116Z,13.23
2023-04-01T08:12:04.166Z,13.21
2023-04-01T08:13:54.899Z,13.30
2023-04-01T08:16:01.067Z,13.38
2023-04-01T08:17:52.563Z,13.48
2023-04-01T08:19:28.899Z,13.54
2023-04-01T08:21:12.258Z,13.52
2023-04-01T08:22:44.806Z,13.55
2023-04-01T08:24:44.384Z,13.52
2023-04-01T08:26:16.657Z,13.69
2023-04-01T08:27:44.092Z,13.73
2023-04-01T08:29:14.709Z,13.87
2023-04-01T08:30:45.847Z,13.96
2023-04-01T08:32:15.633Z,14.14
2023-04-01T08:33:39.450Z,14.28
2023-04-01T08:35:27.307Z,14.42
2023-04-01T08:36:58.576Z,14.47
2023-04-01T08:38:31.632Z,14.50
2023-04-01T08:40:10.223Z,14.50
2023-04-01T08:42:05.385Z,14.59
2023-04-01T08:43:57.560Z,14.70
2023-04-01T08:46:01.264Z,14.78
2023-04-01T08:47:40.679Z,14.87
2023-04-01T08:49:17.062Z,14.89
2023-04-01T08:50:58.795Z,14.91
2023-04-01T08:52:37.692Z,14.89
2023-04-01T08:54:30.709Z,14.87
2023-04-01T08:56:07.967Z,14.94
2023-04-01T08:57:49.577Z,14.99
2023-04-01T09:00:02.438Z,14.97
2023-04-01T09:02:28.308Z,15.16
2023-04-01T09:04:25.417Z,15.29
2023-04-01T09:06:17.264Z,15.39
2023-04-01T09:07:48.980Z,15.59
2023-04-01T09:09:39.652Z,15.56
2023-04-01T09:11:18.377Z,15.60
2023-04-01T09:13:27.430Z,15.52
2023-04-01T09:18:10.219Z,16.08
2023-04-01T09:19:53.106Z,16.09
2023-04-01T09:21:48.849Z,16.10
2023-04-01T09:23:37.298Z,16.11
2023-04-01T09:25:20.036Z,16.27
2023-04-01T09:27:11.891Z,16.41
2023-04-01T09:28:47.677Z,16.54
2023-04-01T09:32:44.892Z,16.75
2023-04-01T09:34:34.366Z,16.89
2023-04-01T09:36:09.100Z,17.27
2023-04-01T09:37:38.700Z,17.40
2023-04-01T09:39:28.630Z,17.39
2023-04-01T09:41:08.553Z,17.45
2023-04-01T09:43:21.236Z,18.47
2023-04-01T09:44:55.960Z,18.60
2023-04-01T09:46:56.918Z,19.10
2023-04-01T09:48:52.981Z,19.55
2023-04-01T09:50:37.933Z,21.35
2023-04-01T09:52:17.801Z,22.05
2023-04-01T09:56:50.322Z,22.82
2023-04-01T09:59:34.871Z,23.24
2023-04-01T10:01:53.940Z,25.20
2023-04-01T10:04:06.254Z,26.99
2023-04-01T10:06:03.375Z,26.67
2023-04-01T10:08:07.487Z,25.99
2023-04-01T10:10:10.259Z,25.30
2023-04-01T10:12:13.701Z,24.86
2023-04-01T10:14:04.907Z,24.35
2023-04-01T10:15:49.396Z,23.89
2023-04-01T10:17:45.710Z,23.19
2023-04-01T10:20:08.800Z,22.54
2023-04-01T10:21:53.914Z,21.76
2023-04-01T10:23:33.304Z,21.46
2023-04-01T10:25:35.009Z,21.25
2023-04-01T10:27:29.273Z,20.96
2023-04-01T10:29:25.678Z,20.96
2023-04-01T10:31:30.558Z,20.64
2023-04-01T10:33:35.935Z,20.56
2023-04-01T10:35:57.931Z,20.61
2023-04-01T10:37:54.546Z,20.11
2023-04-01T10:45:24.133Z,18.12
2023-04-01T10:47:11.699Z,17.81
2023-04-01T10:49:22.667Z,17.35
2023-04-01T10:51:17.272Z,17.03
2023-04-01T10:53:32.603Z,16.90
2023-04-01T10:55:36.952Z,16.77
2023-04-01T10:57:51.561Z,16.46
2023-04-01T11:00:24.083Z,16.24
2023-04-01T11:02:38.245Z,16.06
2023-04-01T11:05:12.270Z,16.00
2023-04-01T11:08:05.378Z,15.94
2023-04-01T11:18:59.546Z,16.75
2023-04-01T11:21:16.981Z,16.94
2023-04-01T11:23:23.106Z,17.34
2023-04-01T11:25:34.479Z,17.16
2023-04-01T11:27:57.777Z,17.01
2023-04-01T11:33:35.398Z,16.64
2023-04-01T11:39:06.654Z,16.67
2023-04-01T11:41:54.521Z,16.84
2023-04-01T14:03:17.388Z,14.42
2023-04-01T14:05:41.860Z,14.35
2023-04-01T14:07:32.781Z,14.32
2023-04-01T14:09:29.928Z,14.33
2023-04-01T14:11:00.938Z,14.27
2023-04-01T14:12:32.390Z,14.14
2023-04-01T14:14:06.920Z,14.17
2023-04-01T14:16:02.801Z,14.11
2023-04-01T14:17:47.575Z,14.03
2023-04-01T14:30:06.879Z,13.83
2023-04-01T14:32:22.727Z,13.89
2023-04-01T14:33:55.058Z,13.88
2023-04-01T14:36:16.463Z,13.88
2023-04-01T14:38:09.885Z,13.97
2023-04-01T14:39:59.703Z,13.91
2023-04-01T14:41:39.012Z,14.03
2023-04-01T14:43:23.383Z,14.05
2023-04-01T14:45:08.722Z,14.10
2023-04-01T14:47:18.892Z,14.15
2023-04-01T14:48:53.790Z,14.11
2023-04-01T14:50:19.072Z,14.15
2023-04-01T14:51:42.660Z,14.21
2023-04-01T14:53:20.632Z,14.16
2023-04-01T14:54:46.345Z,14.19
2023-04-01T14:56:45.916Z,14.16
2023-04-01T14:58:21.272Z,14.14
2023-04-01T14:59:53.664Z,14.08
2023-04-01T15:03:18.659Z,14.14
2023-04-01T15:04:57.170Z,14.17
2023-04-01T15:06:43.043Z,14.16
2023-04-01T15:08:19.879Z,14.13
2023-04-01T15:09:51.021Z,14.12
2023-04-01T15:11:36.310Z,14.08
2023-04-01T15:13:15.141Z,14.00
2023-04-01T15:14:51.504Z,14.00
2023-04-01T15:16:26.474Z,14.01
2023-04-01T15:18:07.953Z,13.95
2023-04-01T15:19:44.015Z,13.88
2023-04-01T15:21:38.243Z,13.86
2023-04-01T15:23:17.874Z,13.80
2023-04-01T15:24:49.318Z,13.73
2023-04-01T15:26:22.597Z,13.73
2023-04-01T15:27:52.350Z,13.70
2023-04-01T15:29:35.440Z,13.64
2023-04-01T15:31:07.503Z,13.64
2023-04-01T15:32:46.268Z,13.59
2023-04-01T15:34:39.465Z,13.59
2023-04-01T15:36:10.634Z,13.56
2023-04-01T15:37:46.520Z,13.60
2023-04-01T15:39:16.569Z,13.63
2023-04-01T15:40:48.371Z,13.65
2023-04-01T15:42:26.323Z,13.62
2023-04-01T15:43:50.882Z,13.68
2023-04-01T15:45:25.567Z,13.67
2023-04-01T15:46:50.167Z,13.75
2023-04-01T15:48:43.425Z,13.77
2023-04-01T15:50:27.495Z,13.78
2023-04-01T15:52:05.596Z,13.79
2023-04-01T15:53:39.793Z,13.81
2023-04-01T15:55:23.200Z,13.74
2023-04-01T15:56:57.152Z,13.73
2023-04-01T15:58:41.232Z,13.67
2023-04-01T16:00:21.676Z,13.68
2023-04-01T16:01:51.467Z,13.65
2023-04-01T16:03:27.009Z,13.60
2023-04-01T16:05:00.949Z,13.53
2023-04-01T16:06:42.568Z,13.49
2023-04-01T16:08:20.325Z,13.50
2023-04-01T16:09:58.945Z,13.44
2023-04-01T16:11:31.805Z,13.46
2023-04-01T16:13:00.858Z,13.38
2023-04-01T16:14:34.489Z,13.36
2023-04-01T16:16:03.685Z,13.34
2023-04-01T16:17:58.181Z,13.32
2023-04-01T16:19:39.844Z,13.30
2023-04-01T16:21:07.221Z,13.30
2023-04-01T16:22:35.216Z,13.30
2023-04-01T16:24:06.420Z,13.28
2023-04-01T16:25:36.598Z,13.27
2023-04-01T16:27:05.361Z,13.28
2023-04-01T16:28:33.619Z,13.26
2023-04-01T16:29:58.875Z,13.22
2023-04-01T16:31:35.171Z,13.22
2023-04-01T16:33:10.069Z,13.18
2023-04-01T16:34:38.442Z,13.21
2023-04-01T16:36:31.219Z,13.11
2023-04-01T16:38:07.756Z,13.11
2023-04-01T16:39:42.223Z,13.03
2023-04-01T16:41:20.728Z,13.00
2023-04-01T16:42:50.656Z,12.98
2023-04-01T16:44:20.880Z,12.91
2023-04-01T16:45:49.591Z,12.87
2023-04-01T16:47:18.392Z,12.82
2023-04-01T16:48:57.439Z,12.75
2023-04-01T16:50:24.768Z,12.75
2023-04-01T16:51:51.248Z,12.70
2023-04-01T16:53:22.048Z,12.67
2023-04-01T16:54:50.423Z,12.63
2023-04-01T16:56:19.447Z,12.65
2023-04-01T16:57:51.314Z,12.55
2023-04-01T16:59:24.594Z,12.56
2023-04-01T17:00:54.128Z,12.57
2023-04-01T17:02:19.570Z,12.53
2023-04-01T17:03:47.722Z,12.53
2023-04-01T17:05:14.596Z,12.52
2023-04-01T17:06:46.692Z,12.48
2023-04-01T17:08:19.854Z,12.40
2023-04-01T17:10:03.087Z,12.44
2023-04-01T17:11:31.524Z,12.44
2023-04-01T17:13:06.436Z,12.43
2023-04-01T17:14:35.287Z,12.40
2023-04-01T17:16:10.219Z,12.38
2023-04-01T17:17:54.427Z,12.35
2023-04-01T17:19:35.437Z,12.36
2023-04-01T17:21:02.545Z,12.36
2023-04-01T17:22:34.473Z,12.34
2023-04-01T17:24:11.962Z,12.34
2023-04-01T17:25:48.581Z,12.32
2023-04-01T17:27:26.006Z,12.26
2023-04-01T17:28:53.064Z,12.31
2023-04-01T17:30:41.972Z,12.27
2023-04-01T17:32:13.929Z,12.29
2023-04-01T17:33:51.156Z,12.30
2023-04-01T17:35:19.768Z,12.30
2023-04-01T17:37:08.775Z,12.24
2023-04-01T17:38:56.519Z,12.26
2023-04-01T17:40:31.519Z,12.29
2023-04-01T17:42:09.463Z,12.28
2023-04-01T17:43:42.815Z,12.28
2023-04-01T17:45:12.926Z,12.27
2023-04-01T17:46:43.315Z,12.28
2023-04-01T17:48:14.636Z,12.30
2023-04-01T17:49:42.142Z,12.29
2023-04-01T17:51:23.288Z,12.30
2023-04-01T17:52:50.960Z,12.23
2023-04-01T17:54:29.692Z,12.30
2023-04-01T17:56:04.009Z,12.30
2023-04-01T17:57:48.007Z,12.32
2023-04-01T17:59:29.120Z,12.33
2023-04-01T18:01:31.026Z,12.28
2023-04-01T18:03:12.223Z,12.30
2023-04-01T18:05:17.640Z,12.30
2023-04-01T18:07:38.585Z,12.29
2023-04-01T18:10:11.371Z,12.25
2023-04-01T18:12:06.208Z,12.17
2023-04-01T18:14:11.536Z,12.17
2023-04-01T18:16:17.646Z,12.15
2023-04-01T18:24:02.912Z,12.06
2023-04-01T18:26:13.535Z,12.01
2023-04-01T18:28:21.457Z,11.97
2023-04-01T18:40:45.892Z,11.76
2023-04-01T18:43:23.061Z,11.71
2023-04-01T18:44:58.440Z,11.66
2023-04-01T18:46:35.576Z,11.65
2023-04-01T18:48:06.358Z,11.68
2023-04-01T18:49:36.589Z,11.67
2023-04-01T18:51:27.878Z,11.66
2023-04-01T18:53:00.630Z,11.60
2023-04-01T18:54:38.545Z,11.69
2023-04-01T18:56:03.770Z,11.64
2023-04-01T18:57:26.117Z,11.69
2023-04-01T18:58:52.982Z,11.64
2023-04-01T19:00:26.022Z,11.66
2023-04-01T19:02:16.152Z,11.68
2023-04-01T19:03:45.826Z,11.68
2023-04-01T19:05:24.126Z,11.68
2023-04-01T19:06:53.140Z,11.69
2023-04-01T19:08:35.251Z,11.64
2023-04-01T19:10:22.216Z,11.69
2023-04-01T19:11:52.560Z,11.68
2023-04-01T19:13:34.444Z,11.64
2023-04-01T19:15:32.053Z,11.62
2023-04-01T19:17:12.972Z,11.62
2023-04-01T19:19:25.885Z,11.57
2023-04-01T19:20:59.107Z,11.61
2023-04-01T19:22:45.790Z,11.56
2023-04-01T19:24:24.671Z,11.57
2023-04-01T19:25:52.859Z,11.57
2023-04-01T19:27:34.802Z,11.57
2023-04-01T19:29:05.256Z,11.52
2023-04-01T19:30:38.667Z,11.48
2023-04-01T19:32:17.395Z,11.52
2023-04-01T19:35:47.995Z,11.47
2023-04-01T19:37:23.443Z,11.41
2023-04-01T19:39:01.858Z,11.43
2023-04-01T19:40:44.982Z,11.42
2023-04-01T19:42:17.562Z,11.37
2023-04-01T19:43:57.721Z,11.32
2023-04-01T19:45:32.687Z,11.34
2023-04-01T19:47:03.251Z,11.31
2023-04-01T19:48:54.163Z,11.26
2023-04-01T19:50:29.788Z,11.21
2023-04-01T19:51:58.367Z,11.11
2023-04-01T19:53:28.480Z,11.12
2023-04-01T19:55:01.423Z,11.08
2023-04-01T19:56:27.476Z,11.05
2023-04-01T19:57:58.736Z,10.98
2023-04-01T19:59:34.412Z,11.00
2023-04-01T20:01:00.701Z,10.96
2023-04-01T20:02:50.393Z,10.92
2023-04-01T20:04:23.494Z,10.90
2023-04-01T20:05:59.485Z,10.87
2023-04-01T20:07:27.141Z,10.81
2023-04-01T20:08:59.612Z,10.71
2023-04-01T20:10:28.740Z,10.75
2023-04-01T20:12:36.088Z,10.69
2023-04-01T20:14:10.279Z,10.67
2023-04-01T20:15:36.914Z,10.63
2023-04-01T20:17:22.452Z,10.64
2023-04-01T20:18:54.747Z,10.62
2023-04-01T20:20:22.160Z,10.56
2023-04-01T20:21:49.264Z,10.53
2023-04-01T20:23:37.697Z,10.49
2023-04-01T20:25:04.285Z,10.45
2023-04-01T20:26:32.247Z,10.44
2023-04-01T20:28:01.505Z,10.44
2023-04-01T20:29:52.969Z,10.41
2023-04-01T20:31:28.383Z,10.37
2023-04-01T20:33:10.169Z,10.40
2023-04-01T20:35:07.298Z,10.35
2023-04-01T20:36:44.866Z,10.37
2023-04-01T20:38:27.995Z,10.32
2023-04-01T20:40:34.982Z,10.35
2023-04-01T20:42:17.099Z,10.35
2023-04-01T20:44:10.714Z,10.25
2023-04-01T20:46:05.097Z,10.30
2023-04-01T20:47:57.156Z,10.29
2023-04-01T20:49:48.400Z,10.28
2023-04-01T20:51:19.769Z,10.22
2023-04-01T20:52:57.713Z,10.25
2023-04-01T20:54:50.663Z,10.27
2023-04-01T20:56:37.259Z,10.23
2023-04-01T20:58:12.445Z,10.20
2023-04-01T21:00:16.680Z,10.23
2023-04-01T21:01:57.454Z,10.23
2023-04-01T21:03:36.904Z,10.27
2023-04-01T21:05:35.000Z,10.27
2023-04-01T21:07:17.929Z,10.23
2023-04-01T21:08:57.810Z,10.22
2023-04-01T21:10:39.321Z,10.24
2023-04-01T21:12:18.663Z,10.24
2023-04-01T21:13:59.393Z,10.25
2023-04-01T21:15:43.136Z,10.20
2023-04-01T21:17:17.775Z,10.28
2023-04-01T21:18:59.107Z,10.28
2023-04-01T21:20:48.485Z,10.28
2023-04-01T21:22:44.970Z,10.26
2023-04-01T21:24:38.303Z,10.30
2023-04-01T21:26:18.182Z,10.29
2023-04-01T21:27:54.588Z,10.29
2023-04-01T21:29:38.498Z,10.27
2023-04-01T21:33:06.834Z,10.31
2023-04-01T21:34:54.796Z,10.31
2023-04-01T21:36:53.064Z,10.31
2023-04-01T21:38:36.385Z,10.29
2023-04-01T21:40:36.084Z,10.28
2023-04-01T21:42:14.094Z,10.30
2023-04-01T21:44:01.698Z,10.28
2023-04-01T21:45:40.309Z,10.24
2023-04-01T21:47:38.018Z,10.24
2023-04-01T21:49:24.698Z,10.22
2023-04-01T21:51:01.318Z,10.22
2023-04-01T21:52:57.058Z,10.18
2023-04-01T21:54:53.349Z,10.16
2023-04-01T21:56:58.803Z,10.13
2023-04-01T21:58:55.321Z,10.11
2023-04-01T22:00:28.290Z,10.07
2023-04-01T22:02:11.789Z,10.07
2023-04-01T22:04:03.787Z,10.03
2023-04-01T22:05:32.914Z,10.02
2023-04-01T22:06:59.479Z,9.96
2023-04-01T22:21:30.855Z,9.81
2023-04-01T22:25:56.489Z,9.68
2023-04-01T22:27:27.679Z,9.69
2023-04-01T22:29:00.817Z,9.73
2023-04-01T22:30:30.754Z,9.74
2023-04-01T22:31:57.647Z,9.69
2023-04-01T22:33:33.281Z,9.71
2023-04-01T22:35:05.387Z,9.72
2023-04-01T22:36:37.281Z,9.69
2023-04-01T22:38:12.920Z,9.72
2023-04-01T22:39:52.189Z,9.73
2023-04-01T22:41:22.261Z,9.74
2023-04-01T22:42:54.376Z,9.69
2023-04-01T22:44:29.132Z,9.70
2023-04-01T22:46:18.305Z,9.68
2023-04-01T22:47:48.647Z,9.69
2023-04-01T22:49:17.685Z,9.63
2023-04-01T22:50:44.771Z,9.67
2023-04-01T22:52:16.165Z,9.64
2023-04-01T22:53:54.586Z,9.61
2023-04-01T22:55:22.438Z,9.66
2023-04-01T22:56:49.919Z,9.64
2023-04-01T22:58:16.947Z,9.69
2023-04-01T22:59:43.639Z,9.66
2023-04-01T23:01:10.304Z,9.65
2023-04-01T23:02:36.497Z,9.71
2023-04-01T23:04:01.401Z,9.68
2023-04-01T23:05:24.465Z,9.69
2023-04-01T23:06:52.232Z,9.69
2023-04-01T23:08:47.700Z,9.71
2023-04-01T23:10:22.954Z,9.70
2023-04-01T23:11:54.605Z,9.72
2023-04-01T23:13:22.027Z,9.74
2023-04-01T23:14:48.971Z,9.76
2023-04-01T23:16:12.501Z,9.75
2023-04-01T23:17:49.853Z,9.74
2023-04-01T23:19:20.841Z,9.74
2023-04-01T23:21:03.404Z,9.74
2023-04-01T23:22:32.188Z,9.73
2023-04-01T23:24:07.138Z,9.69
2023-04-01T23:25:43.238Z,9.72
2023-04-01T23:27:14.190Z,9.73
2023-04-01T23:28:49.580Z,9.66
2023-04-01T23:30:50.633Z,9.68
2023-04-01T23:32:19.296Z,9.68
2023-04-01T23:33:40.516Z,9.66
2023-04-01T23:35:03.032Z,9.64
2023-04-01T23:36:24.809Z,9.62
2023-04-01T23:37:48.012Z,9.59
2023-04-01T23:39:22.534Z,9.58
2023-04-01T23:40:46.608Z,9.57
2023-04-01T23:42:19.314Z,9.58
2023-04-01T23:43:44.173Z,9.57
2023-04-01T23:45:14.399Z,9.55
2023-04-01T23:46:36.714Z,9.55
2023-04-01T23:47:59.532Z,9.49
2023-04-01T23:49:23.161Z,9.52
2023-04-01T23:50:47.077Z,9.52
2023-04-01T23:52:16.513Z,9.49
2023-04-01T23:53:45.262Z,9.47
2023-04-01T23:55:17.562Z,9.47
2023-04-01T23:56:42.481Z,9.43
2023-04-01T23:58:24.312Z,9.37
2023-04-01T23:59:46.420Z,9.36
